Time;durP1;ratioP1;P1;durP2;ratioP2;P2;SDS_P1;SDS_P2;PMS_P1;PMS_P2;Temp;Humidity;BMP_temperature;BMP_pressure;BME280_temperature;BME280_humidity;BME280_pressure;Samples;Min_cycle;Max_cycle;Signal;HPM_P1;HPM_P2
2022/04/29 00:00:04;;;;;;;4.28;2.78;;;15.20;99.20;;;;;;6092696;23;20068;-93
2022/04/29 00:02:31;;;;;;;4.53;2.85;;;15.20;99.10;;;;;;6093527;23;20011;-92
2022/04/29 00:04:56;;;;;;;4.75;2.88;;;15.10;99.20;;;;;;6093650;23;20002;-92
2022/04/29 00:07:22;;;;;;;6.90;3.22;;;15.10;99.20;;;;;;6092396;23;20349;-92
2022/04/29 00:09:48;;;;;;;4.82;3.15;;;15.10;99.20;;;;;;6093177;23;20077;-92
2022/04/29 00:12:14;;;;;;;4.65;3.28;;;15.10;99.20;;;;;;6092358;23;20029;-93
2022/04/29 00:14:40;;;;;;;5.45;2.80;;;15.10;99.10;;;;;;6092663;23;20139;-93
2022/04/29 00:17:05;;;;;;;5.07;3.15;;;15.10;99.30;;;;;;6093050;23;20053;-93
2022/04/29 00:19:32;;;;;;;5.00;3.00;;;15.00;99.20;;;;;;6092703;23;20013;-92
2022/04/29 00:21:58;;;;;;;3.10;2.58;;;15.00;99.10;;;;;;6092732;23;20334;-92
2022/04/29 00:24:24;;;;;;;3.72;3.00;;;15.00;99.20;;;;;;6092580;23;20010;-93
2022/04/29 00:26:50;;;;;;;3.75;2.80;;;15.00;99.30;;;;;;6092506;23;20010;-93
2022/04/29 00:29:16;;;;;;;4.75;2.78;;;15.00;99.10;;;;;;6092108;23;20007;-93
2022/04/29 00:31:41;;;;;;;3.70;3.00;;;14.90;99.20;;;;;;6093268;23;20037;-93
2022/04/29 00:34:07;;;;;;;7.18;2.80;;;14.90;99.20;;;;;;6092688;23;20030;-92
2022/04/29 00:36:33;;;;;;;3.60;2.50;;;14.90;99.20;;;;;;6092097;23;20427;-94
2022/04/29 00:38:59;;;;;;;5.75;2.53;;;14.90;99.20;;;;;;6092648;23;20061;-93
2022/04/29 00:41:25;;;;;;;7.15;3.10;;;14.90;99.10;;;;;;6092133;23;20006;-94
2022/04/29 00:44:10;;;;;;;4.10;2.90;;;14.90;99.20;;;;;;6092536;23;20096;-92
2022/04/29 00:46:47;;;;;;;6.38;2.65;;;14.80;99.10;;;;;;6093194;23;20448;-93
2022/04/29 00:49:15;;;;;;;5.55;2.85;;;14.80;99.10;;;;;;6093148;23;20362;-93
2022/04/29 00:51:51;;;;;;;6.55;2.80;;;14.80;99.10;;;;;;6092490;23;20041;-93
2022/04/29 00:54:32;;;;;;;2.95;2.63;;;14.80;99.20;;;;;;6092098;23;20408;-93
2022/04/29 00:56:59;;;;;;;3.40;2.55;;;14.80;99.20;;;;;;6093111;23;20006;-92
2022/04/29 00:59:33;;;;;;;3.55;2.50;;;14.80;99.10;;;;;;6092526;23;19998;-91
2022/04/29 01:02:02;;;;;;;4.07;2.72;;;14.70;99.00;;;;;;6093499;23;20002;-93
2022/04/29 01:04:37;;;;;;;4.10;2.63;;;14.70;99.10;;;;;;6093020;23;20003;-92
2022/04/29 01:07:03;;;;;;;4.18;2.33;;;14.70;99.00;;;;;;6092098;23;20010;-93
2022/04/29 01:09:29;;;;;;;3.10;2.38;;;14.70;99.20;;;;;;6092466;23;20069;-93
2022/04/29 01:11:55;;;;;;;4.45;2.63;;;14.70;99.00;;;;;;6092437;23;20014;-92
2022/04/29 01:14:21;;;;;;;3.17;2.30;;;14.70;99.00;;;;;;6092939;23;20006;-93
2022/04/29 01:16:47;;;;;;;3.58;2.50;;;14.60;99.10;;;;;;6092401;23;20026;-93
2022/04/29 01:19:13;;;;;;;4.85;2.78;;;14.60;99.10;;;;;;6092419;23;20371;-93
2022/04/29 01:21:39;;;;;;;5.22;2.55;;;14.60;99.00;;;;;;6092270;23;20003;-92
2022/04/29 01:24:09;;;;;;;3.60;2.40;;;14.60;99.10;;;;;;6092173;23;20022;-94
2022/04/29 01:26:36;;;;;;;3.00;2.10;;;14.60;99.10;;;;;;6091954;23;20017;-92
2022/04/29 01:29:02;;;;;;;3.05;2.50;;;14.50;99.00;;;;;;6091880;23;20107;-92
2022/04/29 01:31:29;;;;;;;3.30;2.70;;;14.50;99.10;;;;;;6092309;23;20014;-93
2022/04/29 01:33:56;;;;;;;3.47;2.40;;;14.50;99.10;;;;;;6091913;23;20429;-92
2022/04/29 01:36:25;;;;;;;5.25;2.80;;;14.50;98.90;;;;;;6092501;23;20006;-92
2022/04/29 01:38:50;;;;;;;3.20;2.10;;;14.50;99.00;;;;;;6093188;23;20422;-93
2022/04/29 01:41:16;;;;;;;4.65;2.40;;;14.50;98.90;;;;;;6093944;23;20039;-93
2022/04/29 01:43:42;;;;;;;3.58;2.42;;;14.40;98.90;;;;;;6094402;23;20425;-92
2022/04/29 01:46:07;;;;;;;4.25;2.50;;;14.50;99.00;;;;;;6093468;23;20010;-93
2022/04/29 01:48:33;;;;;;;3.70;2.45;;;14.40;99.00;;;;;;6093502;23;20006;-93
2022/04/29 01:50:59;;;;;;;3.13;2.40;;;14.40;99.00;;;;;;6093578;23;20017;-93
2022/04/29 01:53:24;;;;;;;3.78;2.40;;;14.40;99.00;;;;;;6092989;23;20094;-93
2022/04/29 01:55:50;;;;;;;3.08;2.20;;;14.40;98.90;;;;;;6093678;23;20445;-92
2022/04/29 01:58:16;;;;;;;4.05;2.50;;;14.40;98.90;;;;;;6093367;23;20458;-92
2022/04/29 02:00:42;;;;;;;3.17;2.55;;;14.40;99.00;;;;;;6094267;23;20080;-94
2022/04/29 02:03:07;;;;;;;3.35;2.60;;;14.30;98.90;;;;;;6093574;23;20097;-93
2022/04/29 02:05:33;;;;;;;3.70;2.47;;;14.30;98.90;;;;;;6094338;23;20050;-92
2022/04/29 02:08:00;;;;;;;4.90;2.50;;;14.30;98.80;;;;;;6093554;23;20419;-93
2022/04/29 02:10:26;;;;;;;3.05;2.50;;;14.30;98.90;;;;;;6093654;23;20003;-93
2022/04/29 02:12:52;;;;;;;6.45;2.40;;;14.30;99.00;;;;;;6093486;23;20345;-93
2022/04/29 02:15:20;;;;;;;4.43;2.28;;;14.20;98.90;;;;;;6093294;23;20438;-93
2022/04/29 02:17:46;;;;;;;5.43;2.58;;;14.20;98.90;;;;;;6092955;23;20003;-92
2022/04/29 02:20:11;;;;;;;3.25;2.58;;;14.20;98.90;;;;;;6093371;23;20014;-92
2022/04/29 02:22:37;;;;;;;3.95;2.50;;;14.20;98.90;;;;;;6093878;23;20014;-93
2022/04/29 02:25:04;;;;;;;4.03;2.30;;;14.20;98.90;;;;;;6093892;23;20370;-93
2022/04/29 02:27:29;;;;;;;5.13;3.05;;;14.20;98.90;;;;;;6093483;23;20014;-93
2022/04/29 02:29:55;;;;;;;4.05;2.55;;;14.20;99.00;;;;;;6093060;23;20037;-93
2022/04/29 02:32:21;;;;;;;5.20;2.40;;;14.10;98.90;;;;;;6102253;23;20017;-92
2022/04/29 02:34:46;;;;;;;3.47;2.47;;;14.10;98.90;;;;;;6220913;23;20089;-92
2022/04/29 02:37:15;;;;;;;3.45;2.47;;;14.10;99.00;;;;;;6221377;23;20008;-92
2022/04/29 02:39:41;;;;;;;4.80;2.65;;;14.10;98.90;;;;;;6196563;23;20020;-92
2022/04/29 02:42:07;;;;;;;3.30;2.58;;;14.10;99.00;;;;;;6221407;23;20010;-93
2022/04/29 02:44:33;;;;;;;2.95;2.30;;;14.10;99.00;;;;;;6221857;23;20004;-94
2022/04/29 02:47:08;;;;;;;3.30;2.78;;;14.10;99.00;;;;;;6221436;23;20386;-93
2022/04/29 02:49:38;;;;;;;3.70;2.33;;;14.10;99.00;;;;;;6221254;23;20015;-92
2022/04/29 02:52:07;;;;;;;3.33;2.65;;;14.00;99.00;;;;;;6222197;23;20487;-92
2022/04/29 02:54:33;;;;;;;2.80;2.50;;;14.00;99.30;;;;;;6220884;23;20372;-93
2022/04/29 02:56:59;;;;;;;4.28;2.25;;;14.00;98.90;;;;;;6221248;23;20007;-91
2022/04/29 02:59:25;;;;;;;3.08;2.40;;;14.00;99.00;;;;;;6221240;23;20004;-93
2022/04/29 03:01:51;;;;;;;4.18;2.53;;;14.00;99.00;;;;;;6221833;23;20000;-94
2022/04/29 03:04:16;;;;;;;3.58;2.40;;;13.90;98.90;;;;;;6221571;23;20030;-93
2022/04/29 03:06:42;;;;;;;5.88;2.80;;;13.90;98.90;;;;;;6220876;23;20011;-92
2022/04/29 03:09:08;;;;;;;3.88;2.47;;;13.90;98.90;;;;;;6221999;23;20087;-92
2022/04/29 03:11:34;;;;;;;4.68;2.55;;;13.90;98.90;;;;;;6222074;23;20008;-93
2022/04/29 03:14:00;;;;;;;3.88;2.45;;;13.90;98.90;;;;;;6220981;23;20340;-92
2022/04/29 03:16:25;;;;;;;2.45;2.20;;;13.90;98.90;;;;;;6221998;23;20374;-92
2022/04/29 03:18:51;;;;;;;3.22;2.60;;;13.90;98.90;;;;;;6221478;23;20380;-93
2022/04/29 03:21:20;;;;;;;5.55;2.47;;;13.90;98.90;;;;;;6220619;23;20034;-92
2022/04/29 03:23:49;;;;;;;3.92;2.50;;;13.80;98.90;;;;;;6221753;23;20008;-92
2022/04/29 03:26:15;;;;;;;3.13;2.33;;;13.80;98.80;;;;;;6221032;23;20008;-92
2022/04/29 03:28:41;;;;;;;4.28;2.40;;;13.80;98.80;;;;;;6221363;23;20372;-93
2022/04/29 03:31:07;;;;;;;3.92;2.55;;;13.80;98.90;;;;;;6220740;23;20442;-92
2022/04/29 03:33:33;;;;;;;3.30;2.75;;;13.80;98.90;;;;;;6147430;23;20454;-93
2022/04/29 03:35:59;;;;;;;4.63;2.80;;;13.80;98.90;;;;;;6093309;23;20373;-93
2022/04/29 03:38:25;;;;;;;3.15;2.58;;;13.80;98.90;;;;;;6093376;23;20002;-93
2022/04/29 03:40:52;;;;;;;3.25;2.30;;;13.70;98.90;;;;;;6093953;23;20007;-93
2022/04/29 03:43:18;;;;;;;3.33;2.65;;;13.70;98.90;;;;;;6068850;23;20045;-92
2022/04/29 03:45:44;;;;;;;3.00;2.40;;;13.70;98.90;;;;;;6094112;23;20014;-92
2022/04/29 03:48:10;;;;;;;3.80;2.58;;;13.70;98.80;;;;;;6094092;23;20011;-92
2022/04/29 03:50:36;;;;;;;3.55;2.42;;;13.70;98.90;;;;;;6093765;23;20037;-92
2022/04/29 03:53:03;;;;;;;4.22;2.33;;;13.70;98.80;;;;;;6093006;23;20203;-92
2022/04/29 03:55:32;;;;;;;3.70;2.70;;;13.70;98.90;;;;;;6093221;23;20003;-93
2022/04/29 03:57:58;;;;;;;3.30;2.60;;;13.70;98.90;;;;;;6093311;23;20009;-93
2022/04/29 04:00:31;;;;;;;3.00;2.30;;;13.60;98.80;;;;;;6093290;23;20006;-92
2022/04/29 04:02:57;;;;;;;3.20;2.50;;;13.60;98.80;;;;;;6093979;23;20013;-92
2022/04/29 04:05:23;;;;;;;5.20;2.63;;;13.60;98.80;;;;;;6093107;23;20003;-93
2022/04/29 04:07:49;;;;;;;3.90;2.47;;;13.60;98.80;;;;;;6093474;23;20006;-93
2022/04/29 04:10:16;;;;;;;5.32;2.58;;;13.60;98.90;;;;;;6093289;23;20152;-92
2022/04/29 04:12:43;;;;;;;8.60;2.90;;;13.60;98.90;;;;;;6092967;23;20013;-92
2022/04/29 04:15:11;;;;;;;2.78;2.47;;;13.60;98.90;;;;;;6093162;23;20013;-92
2022/04/29 04:17:37;;;;;;;3.63;2.83;;;13.50;98.90;;;;;;6093763;23;20002;-93
2022/04/29 04:20:04;;;;;;;4.85;2.63;;;13.60;98.90;;;;;;6092505;23;20010;-93
2022/04/29 04:22:32;;;;;;;4.95;2.38;;;13.50;98.90;;;;;;6093576;23;20013;-92
2022/04/29 04:25:01;;;;;;;3.88;2.30;;;13.50;98.90;;;;;;6092828;23;20006;-93
2022/04/29 04:27:27;;;;;;;5.85;2.88;;;13.50;98.90;;;;;;6093051;23;20006;-93
2022/04/29 04:29:53;;;;;;;3.28;2.55;;;13.50;98.90;;;;;;6093107;23;20085;-93
2022/04/29 04:32:20;;;;;;;3.35;2.55;;;13.50;98.90;;;;;;6100057;23;20006;-92
2022/04/29 04:34:52;;;;;;;4.70;2.97;;;13.50;98.90;;;;;;6220663;23;20099;-92
2022/04/29 04:37:22;;;;;;;5.43;2.90;;;13.40;98.90;;;;;;6221805;23;20054;-94
2022/04/29 04:39:51;;;;;;;4.20;3.03;;;13.50;99.00;;;;;;6220870;23;20004;-93
2022/04/29 04:42:20;;;;;;;5.38;2.65;;;13.40;98.90;;;;;;6220407;23;20004;-93
2022/04/29 04:44:47;;;;;;;3.13;2.38;;;13.40;98.90;;;;;;6220661;23;20004;-92
2022/04/29 04:47:14;;;;;;;4.57;2.70;;;13.40;98.90;;;;;;6220939;23;20027;-93
2022/04/29 04:49:39;;;;;;;4.47;2.83;;;13.40;99.00;;;;;;6221326;23;20016;-93
2022/04/29 04:52:06;;;;;;;3.38;2.70;;;13.40;98.90;;;;;;6220231;23;20371;-93
2022/04/29 04:54:32;;;;;;;4.30;2.70;;;13.40;98.90;;;;;;6220071;23;20174;-92
2022/04/29 04:56:58;;;;;;;4.03;2.45;;;13.40;99.00;;;;;;6221483;23;20431;-93
2022/04/29 04:59:23;;;;;;;4.35;2.92;;;13.30;99.00;;;;;;6219986;23;20001;-92
2022/04/29 05:01:49;;;;;;;4.43;3.00;;;13.40;99.00;;;;;;6220129;23;20011;-92
2022/04/29 05:04:15;;;;;;;3.85;2.60;;;13.40;99.00;;;;;;6220528;23;20304;-92
2022/04/29 05:06:41;;;;;;;4.70;2.80;;;13.40;99.00;;;;;;6220271;23;20004;-93
2022/04/29 05:09:08;;;;;;;3.75;2.78;;;13.40;99.00;;;;;;6220168;23;20008;-92
2022/04/29 05:11:34;;;;;;;5.20;2.75;;;13.40;99.00;;;;;;6221993;23;20008;-92
2022/04/29 05:14:00;;;;;;;3.25;2.72;;;13.40;99.00;;;;;;6222576;23;20012;-94
2022/04/29 05:16:28;;;;;;;4.53;2.90;;;13.40;99.00;;;;;;6222087;23;20493;-92
2022/04/29 05:18:54;;;;;;;3.65;2.50;;;13.40;99.10;;;;;;6222524;23;20000;-91
2022/04/29 05:21:20;;;;;;;4.60;2.90;;;13.30;99.10;;;;;;6222272;23;20004;-91
2022/04/29 05:23:46;;;;;;;3.22;2.53;;;13.30;99.10;;;;;;6222930;23;20412;-93
2022/04/29 05:26:11;;;;;;;3.53;2.75;;;13.40;99.20;;;;;;6222947;23;20058;-93
2022/04/29 05:29:06;;;;;;;3.40;2.60;;;13.30;99.10;;;;;;6223445;23;20016;-94
2022/04/29 05:31:32;;;;;;;;;;;13.40;99.20;;;;;;6192221;23;20023;-93
2022/04/29 05:34:06;;;;;;;3.63;3.00;;;13.40;99.30;;;;;;6127230;23;19984;-92
2022/04/29 05:36:36;;;;;;;3.47;2.63;;;13.30;99.20;;;;;;6071823;23;20022;-93
2022/04/29 05:44:35;;;;;;;3.92;2.80;;;13.30;99.30;;;;;;6095422;23;20013;-93
2022/04/29 05:47:00;;;;;;;3.13;2.83;;;13.40;99.40;;;;;;6093992;23;20010;-92
2022/04/29 05:49:26;;;;;;;4.20;3.08;;;13.40;99.40;;;;;;6093874;23;20107;-94
2022/04/29 05:51:52;;;;;;;8.35;3.17;;;13.40;99.40;;;;;;6093751;23;20397;-93
2022/04/29 05:54:18;;;;;;;3.97;2.90;;;13.40;99.50;;;;;;6093749;23;20013;-93
2022/04/29 05:56:44;;;;;;;4.20;2.95;;;13.40;99.50;;;;;;6093874;23;20002;-93
2022/04/29 05:59:10;;;;;;;5.45;3.08;;;13.40;99.50;;;;;;6093813;23;20089;-92
2022/04/29 06:01:35;;;;;;;4.80;3.05;;;13.40;99.60;;;;;;6093533;23;20077;-93
2022/04/29 06:04:01;;;;;;;3.25;2.88;;;13.40;99.60;;;;;;6094188;23;20085;-93
2022/04/29 06:06:27;;;;;;;5.22;3.13;;;13.40;99.60;;;;;;6094223;23;20003;-93
2022/04/29 06:08:52;;;;;;;3.75;3.03;;;13.40;99.70;;;;;;6093879;23;20369;-93
2022/04/29 06:11:18;;;;;;;4.00;2.95;;;13.40;99.70;;;;;;6093179;23;20056;-92
2022/04/29 06:13:44;;;;;;;6.82;2.78;;;13.50;99.80;;;;;;6093824;23;20220;-93
2022/04/29 06:16:10;;;;;;;5.07;3.00;;;13.40;99.80;;;;;;6094043;23;20038;-93
2022/04/29 06:18:36;;;;;;;5.30;3.25;;;13.50;99.90;;;;;;6094397;23;20086;-92
2022/04/29 06:21:03;;;;;;;4.00;2.90;;;13.50;99.90;;;;;;6094163;23;20010;-92
2022/04/29 06:23:29;;;;;;;4.55;3.00;;;13.50;99.90;;;;;;6094273;23;20038;-93
2022/04/29 06:25:54;;;;;;;4.25;2.88;;;13.50;99.90;;;;;;6069637;23;20057;-93
2022/04/29 06:28:20;;;;;;;3.90;2.80;;;13.50;99.90;;;;;;6093953;23;20014;-93
2022/04/29 06:30:46;;;;;;;3.53;2.85;;;13.50;99.90;;;;;;6094280;23;20014;-92
2022/04/29 06:33:11;;;;;;;5.00;3.03;;;13.60;99.90;;;;;;6093820;23;20089;-93
2022/04/29 06:35:41;;;;;;;3.80;3.17;;;13.60;99.90;;;;;;6094147;23;20006;-93
2022/04/29 06:38:07;;;;;;;4.05;2.45;;;13.60;99.90;;;;;;6093522;23;20002;-94
2022/04/29 06:40:33;;;;;;;6.97;2.95;;;13.60;99.90;;;;;;6093423;23;20013;-93
2022/04/29 06:42:58;;;;;;;4.03;2.78;;;13.60;99.90;;;;;;6094604;23;20048;-92
2022/04/29 06:45:24;;;;;;;3.30;2.90;;;13.60;99.90;;;;;;6094192;23;20014;-93
2022/04/29 06:47:50;;;;;;;3.70;2.55;;;13.60;99.90;;;;;;6093589;23;20010;-93
2022/04/29 06:50:15;;;;;;;4.00;3.05;;;13.60;99.90;;;;;;6093810;23;20056;-93
2022/04/29 06:52:42;;;;;;;3.45;2.80;;;13.70;99.90;;;;;;6093704;23;20013;-92
2022/04/29 06:55:08;;;;;;;4.30;3.10;;;13.70;99.90;;;;;;6093982;23;20447;-94
2022/04/29 06:57:34;;;;;;;4.05;3.15;;;13.70;99.90;;;;;;6093699;23;20057;-92
2022/04/29 07:00:00;;;;;;;4.72;2.90;;;13.70;99.90;;;;;;6093702;23;20003;-93
2022/04/29 07:02:26;;;;;;;5.65;4.10;;;13.70;99.90;;;;;;6094002;23;20003;-92
2022/04/29 07:04:55;;;;;;;7.00;4.30;;;13.80;99.90;;;;;;6093427;23;20195;-92
2022/04/29 07:07:21;;;;;;;6.88;3.78;;;13.80;99.90;;;;;;6094002;23;20121;-92
2022/04/29 07:09:46;;;;;;;7.85;4.57;;;13.80;99.90;;;;;;6093700;23;20029;-93
2022/04/29 07:12:12;;;;;;;5.97;4.10;;;13.80;99.90;;;;;;6069840;23;20046;-92
2022/04/29 07:14:38;;;;;;;6.45;3.80;;;13.80;99.90;;;;;;6093669;23;20003;-92
2022/04/29 07:17:04;;;;;;;6.40;4.03;;;13.90;99.90;;;;;;6093926;23;20426;-92
2022/04/29 07:19:30;;;;;;;5.03;3.63;;;13.90;99.90;;;;;;6094014;23;20010;-91
2022/04/29 07:21:56;;;;;;;6.30;3.80;;;13.90;99.90;;;;;;6094356;23;20311;-89
2022/04/29 07:24:21;;;;;;;11.93;6.32;;;13.90;99.90;;;;;;6093151;23;20007;-88
2022/04/29 07:26:50;;;;;;;7.13;5.88;;;14.00;99.90;;;;;;6093361;23;20011;-91
2022/04/29 07:29:16;;;;;;;9.68;5.88;;;13.80;99.90;;;;;;6094169;23;20011;-93
2022/04/29 07:31:41;;;;;;;9.30;5.25;;;13.80;99.90;;;;;;6094284;23;20319;-93
2022/04/29 07:34:07;;;;;;;10.60;5.65;;;13.90;99.90;;;;;;6092617;23;20019;-91
2022/04/29 07:42:01;;;;;;;7.03;5.13;;;14.00;99.90;;;;;;6094942;23;20025;-92
2022/04/29 07:44:27;;;;;;;7.15;5.13;;;14.00;99.90;;;;;;6093741;23;20006;-92
2022/04/29 07:46:53;;;;;;;7.05;4.70;;;14.10;99.90;;;;;;6092910;23;20017;-92
2022/04/29 07:49:19;;;;;;;7.78;4.68;;;14.10;99.90;;;;;;6093576;23;20011;-92
2022/04/29 07:51:45;;;;;;;6.40;4.43;;;14.10;99.90;;;;;;6093073;23;20102;-91
2022/04/29 07:54:11;;;;;;;6.50;4.47;;;14.20;99.90;;;;;;6093312;23;20011;-92
2022/04/29 07:56:37;;;;;;;8.02;4.38;;;14.20;99.90;;;;;;6093220;23;20002;-93
2022/04/29 07:59:03;;;;;;;5.93;4.30;;;14.30;99.90;;;;;;6094383;23;20034;-93
2022/04/29 08:01:30;;;;;;;6.97;4.35;;;14.30;99.90;;;;;;6094003;23;20003;-92
2022/04/29 08:03:56;;;;;;;6.28;4.38;;;14.30;99.90;;;;;;6094164;23;20006;-93
2022/04/29 08:06:22;;;;;;;5.07;3.63;;;14.30;99.90;;;;;;6094149;23;20011;-93
2022/04/29 08:08:48;;;;;;;7.60;4.15;;;14.30;99.90;;;;;;6094129;23;20304;-93
2022/04/29 08:11:16;;;;;;;5.05;4.13;;;14.30;99.90;;;;;;6093157;23;20504;-92
2022/04/29 08:13:44;;;;;;;10.40;3.90;;;14.30;99.90;;;;;;6092953;23;20009;-92
2022/04/29 08:16:12;;;;;;;5.93;3.72;;;14.30;99.90;;;;;;6093020;23;20009;-92
2022/04/29 08:18:38;;;;;;;7.63;4.15;;;14.30;99.90;;;;;;6093131;23;20003;-92
2022/04/29 08:21:04;;;;;;;4.80;3.20;;;14.30;99.90;;;;;;6093009;23;20342;-91
2022/04/29 08:23:30;;;;;;;7.93;3.67;;;14.30;99.90;;;;;;6093676;23;20433;-91
2022/04/29 08:25:56;;;;;;;6.78;3.53;;;14.40;99.90;;;;;;6093884;23;20010;-91
2022/04/29 08:28:23;;;;;;;10.93;5.40;;;14.40;99.90;;;;;;6093549;23;20247;-89
2022/04/29 08:30:49;;;;;;;10.57;4.88;;;14.50;99.10;;;;;;6093118;23;20335;-93
2022/04/29 08:33:15;;;;;;;9.18;4.65;;;14.60;99.20;;;;;;6071902;23;20027;-93
2022/04/29 08:35:42;;;;;;;6.00;4.07;;;14.70;99.20;;;;;;6096846;23;20007;-92
2022/04/29 08:38:10;;;;;;;8.00;4.65;;;14.70;99.10;;;;;;6094714;23;20002;-92
2022/04/29 08:40:44;;;;;;;8.23;4.35;;;14.70;99.10;;;;;;6092832;23;20453;-92
2022/04/29 08:43:12;;;;;;;;;;;14.70;99.00;;;;;;6094659;23;20058;-94
2022/04/29 08:45:38;;;;;;;6.70;4.28;;;14.80;98.90;;;;;;6092806;23;19901;-90
2022/04/29 08:48:04;;;;;;;6.00;4.10;;;14.80;98.80;;;;;;6092044;23;20439;-90
2022/04/29 08:50:33;;;;;;;5.85;3.83;;;14.80;98.90;;;;;;6092065;23;20033;-91
2022/04/29 08:52:59;;;;;;;6.13;3.90;;;14.90;98.70;;;;;;6092928;23;20036;-91
2022/04/29 09:01:03;;;;;;;5.75;3.80;;;14.90;98.70;;;;;;6094092;23;20060;-94
2022/04/29 09:03:30;;;;;;;7.40;3.58;;;15.00;98.30;;;;;;6096812;23;20315;-90
2022/04/29 09:05:56;;;;;;;4.10;2.92;;;15.00;98.50;;;;;;6092708;23;20113;-92
2022/04/29 09:08:23;;;;;;;5.22;3.38;;;15.00;98.40;;;;;;6092669;23;20009;-92
2022/04/29 09:10:57;;;;;;;5.13;3.28;;;15.00;98.30;;;;;;6094506;23;20085;-93
2022/04/29 09:13:24;;;;;;;;;;;15.10;98.10;;;;;;6093724;23;20010;-91
2022/04/29 09:15:59;;;;;;;5.53;3.42;;;15.10;98.30;;;;;;6093613;23;19908;-93
2022/04/29 09:18:34;;;;;;;4.50;2.85;;;15.10;97.90;;;;;;6093819;23;20365;-91
2022/04/29 09:21:04;;;;;;;4.30;2.80;;;15.10;97.90;;;;;;6093592;23;20018;-95
2022/04/29 09:23:30;;;;;;;5.07;2.88;;;15.10;98.00;;;;;;6092861;23;20007;-92
2022/04/29 09:26:01;;;;;;;6.63;2.90;;;15.10;98.00;;;;;;6095491;23;20010;-92
2022/04/29 09:28:27;;;;;;;4.85;3.05;;;15.10;97.60;;;;;;6093014;23;20030;-91
2022/04/29 09:30:59;;;;;;;4.47;2.80;;;15.10;97.60;;;;;;6094344;23;20013;-95
2022/04/29 09:33:26;;;;;;;7.47;3.00;;;15.00;97.70;;;;;;6093030;23;20042;-92
2022/04/29 09:35:56;;;;;;;4.30;2.92;;;15.00;97.70;;;;;;6092716;23;20082;-93
2022/04/29 09:41:07;;;;;;;5.00;3.05;;;14.90;97.90;;;;;;6094097;23;20060;-92
2022/04/29 09:43:35;;;;;;;3.35;2.63;;;14.90;98.00;;;;;;6092305;23;20021;-93
2022/04/29 09:46:13;;;;;;;4.90;2.88;;;14.80;98.10;;;;;;6093040;23;20033;-92
2022/04/29 09:49:06;;;;;;;4.25;2.65;;;14.80;97.80;;;;;;6093133;23;20342;-89
2022/04/29 09:51:43;;;;;;;3.97;2.65;;;14.80;98.00;;;;;;6093940;23;20007;-92
2022/04/29 09:54:29;;;;;;;3.58;2.60;;;14.80;98.10;;;;;;6092185;23;20081;-92
2022/04/29 09:57:27;;;;;;;5.20;2.53;;;14.70;98.10;;;;;;6092610;23;20002;-90
2022/04/29 09:59:55;;;;;;;6.45;2.35;;;14.80;98.30;;;;;;6093794;23;20025;-90
2022/04/29 10:02:23;;;;;;;5.95;2.53;;;14.80;98.20;;;;;;6093622;23;20002;-91
2022/04/29 10:04:51;;;;;;;3.80;2.67;;;14.80;98.00;;;;;;6094164;23;20010;-91
2022/04/29 10:07:18;;;;;;;4.40;2.63;;;14.80;97.90;;;;;;6093546;23;20007;-87
2022/04/29 10:09:52;;;;;;;5.60;2.90;;;14.80;98.10;;;;;;6093302;23;20435;-92
2022/04/29 10:12:26;;;;;;;4.03;2.47;;;14.80;98.10;;;;;;6093776;23;20007;-92
2022/04/29 10:14:57;;;;;;;4.40;2.45;;;14.80;98.20;;;;;;6093324;23;20014;-92
2022/04/29 10:23:09;;;;;;;3.58;2.50;;;15.00;97.90;;;;;;6096038;23;20010;-90
2022/04/29 10:25:39;;;;;;;6.80;2.65;;;15.10;97.80;;;;;;6093091;23;20006;-90
2022/04/29 10:28:06;;;;;;;4.85;2.58;;;15.10;97.90;;;;;;6093053;23;19999;-91
2022/04/29 10:30:40;;;;;;;3.25;2.30;;;15.10;97.80;;;;;;6093057;23;20003;-89
2022/04/29 10:33:10;;;;;;;3.88;2.10;;;15.20;97.80;;;;;;6092331;23;20026;-90
2022/04/29 10:35:53;;;;;;;3.45;2.40;;;15.20;97.70;;;;;;6093325;23;20015;-90
2022/04/29 10:38:26;;;;;;;5.25;2.33;;;15.20;97.70;;;;;;6094375;23;20445;-90
2022/04/29 10:41:07;;;;;;;3.70;2.60;;;15.30;97.70;;;;;;6093720;23;20025;-89
2022/04/29 10:43:53;;;;;;;3.40;2.47;;;15.30;97.70;;;;;;6093005;23;20018;-89
2022/04/29 10:46:24;;;;;;;2.42;1.90;;;15.40;97.50;;;;;;6098068;23;20010;-89
2022/04/29 10:48:54;;;;;;;3.40;2.30;;;15.40;97.40;;;;;;6092995;23;20006;-90
2022/04/29 10:51:29;;;;;;;3.05;2.55;;;15.50;97.50;;;;;;6092476;23;20003;-89
2022/04/29 10:53:57;;;;;;;2.83;2.38;;;15.50;97.20;;;;;;6092885;23;20014;-89
2022/04/29 10:56:31;;;;;;;3.88;2.40;;;15.50;97.20;;;;;;6092827;23;20003;-89
2022/04/29 10:59:12;;;;;;;;;;;15.50;96.80;;;;;;6093467;23;20006;-90
2022/04/29 11:01:40;;;;;;;3.35;2.20;;;15.50;97.10;;;;;;6092819;23;19901;-90
2022/04/29 11:04:15;;;;;;;4.68;2.63;;;15.50;97.10;;;;;;6093321;23;20022;-89
2022/04/29 11:06:44;;;;;;;7.72;2.88;;;15.40;97.20;;;;;;6093308;23;20029;-89
2022/04/29 11:09:28;;;;;;;3.72;2.40;;;15.40;97.30;;;;;;6092339;23;20015;-90
2022/04/29 11:11:55;;;;;;;4.70;2.10;;;15.40;97.40;;;;;;6092899;23;20042;-89
2022/04/29 11:14:21;;;;;;;2.83;2.00;;;15.40;97.50;;;;;;6092906;23;20010;-90
2022/04/29 11:17:15;;;;;;;2.90;2.03;;;15.30;97.50;;;;;;6092220;23;20009;-90
2022/04/29 11:19:47;;;;;;;3.30;2.30;;;15.30;97.40;;;;;;6095550;23;20013;-90
2022/04/29 11:25:03;;;;;;;3.65;2.30;;;15.30;97.30;;;;;;6093335;23;20354;-92
2022/04/29 11:27:32;;;;;;;3.35;2.40;;;15.40;97.40;;;;;;6092645;23;20011;-88
2022/04/29 11:30:02;;;;;;;3.90;2.58;;;15.30;97.50;;;;;;6093204;23;20010;-90
2022/04/29 11:32:28;;;;;;;2.55;2.20;;;15.30;97.50;;;;;;6108854;23;20006;-89
2022/04/29 11:34:55;;;;;;;3.22;2.20;;;15.20;97.40;;;;;;6220868;23;20008;-89
2022/04/29 11:37:27;;;;;;;3.40;1.90;;;15.30;97.30;;;;;;6195909;23;20414;-90
2022/04/29 11:39:55;;;;;;;5.10;2.30;;;15.30;97.30;;;;;;6221250;23;20062;-90
2022/04/29 11:42:21;;;;;;;3.88;2.50;;;15.30;97.20;;;;;;6221193;23;20356;-88
2022/04/29 11:44:49;;;;;;;2.85;2.15;;;15.20;97.20;;;;;;6220308;23;20004;-89
2022/04/29 11:47:16;;;;;;;2.88;1.90;;;15.20;97.30;;;;;;6221272;23;20376;-89
2022/04/29 11:49:44;;;;;;;3.10;1.90;;;15.20;97.10;;;;;;6220810;23;20420;-91
2022/04/29 11:52:24;;;;;;;7.90;2.08;;;15.20;97.10;;;;;;6221234;23;20008;-88
2022/04/29 11:54:55;;;;;;;2.83;2.00;;;15.30;96.90;;;;;;6221016;23;20344;-89
2022/04/29 11:57:23;;;;;;;2.20;1.80;;;15.30;97.10;;;;;;6221341;23;20012;-88
2022/04/29 11:59:49;;;;;;;2.97;2.00;;;15.20;97.20;;;;;;6220466;23;20004;-89
2022/04/29 12:02:24;;;;;;;3.10;2.22;;;15.20;97.10;;;;;;6220448;23;20417;-88
2022/04/29 12:05:06;;;;;;;2.45;2.15;;;15.20;97.10;;;;;;6220000;23;20004;-89
2022/04/29 12:07:43;;;;;;;2.67;2.08;;;15.30;97.20;;;;;;6219938;23;20011;-89
2022/04/29 12:10:23;;;;;;;3.05;2.05;;;15.30;97.20;;;;;;6219920;23;20344;-89
2022/04/29 12:12:55;;;;;;;2.95;2.05;;;15.40;97.00;;;;;;6219628;23;20011;-89
2022/04/29 12:15:24;;;;;;;2.72;1.90;;;15.40;97.00;;;;;;6220318;23;20090;-92
2022/04/29 12:17:50;;;;;;;3.65;2.20;;;15.50;96.90;;;;;;6219568;23;20046;-90
2022/04/29 12:20:19;;;;;;;3.90;2.13;;;15.60;96.70;;;;;;6219397;23;20440;-89
2022/04/29 12:22:48;;;;;;;4.00;1.85;;;15.70;96.30;;;;;;6220130;23;20004;-91
2022/04/29 12:25:29;;;;;;;4.10;2.20;;;15.70;96.40;;;;;;6219697;23;20103;-87
2022/04/29 12:28:20;;;;;;;2.85;1.92;;;15.70;96.40;;;;;;6246048;23;20000;-89
2022/04/29 12:36:54;;;;;;;3.58;1.75;;;15.70;96.40;;;;;;6246527;23;20505;-87
2022/04/29 12:39:26;;;;;;;3.67;1.88;;;15.80;96.40;;;;;;6220259;23;20082;-87
2022/04/29 12:42:09;;;;;;;4.28;2.10;;;15.90;96.30;;;;;;6215381;23;20004;-89
2022/04/29 12:45:08;;;;;;;3.53;1.90;;;15.90;96.30;;;;;;6219301;23;20091;-88
2022/04/29 12:47:43;;;;;;;3.47;1.80;;;15.90;96.30;;;;;;6192380;23;20297;-89
2022/04/29 12:50:18;;;;;;;4.57;2.30;;;15.90;96.40;;;;;;6219725;23;20007;-89
2022/04/29 12:53:06;;;;;;;3.00;2.13;;;15.80;96.50;;;;;;6220265;23;20011;-88
2022/04/29 12:55:34;;;;;;;3.78;2.00;;;15.80;96.30;;;;;;6246185;23;20344;-88
2022/04/29 12:58:08;;;;;;;3.40;2.10;;;15.70;96.30;;;;;;6219471;23;20027;-88
2022/04/29 13:00:35;;;;;;;1.98;1.60;;;15.70;96.50;;;;;;6220091;23;20343;-89
2022/04/29 13:03:07;;;;;;;2.90;1.95;;;15.70;96.50;;;;;;6219714;23;20007;-86
2022/04/29 13:05:34;;;;;;;1.98;1.80;;;15.60;96.60;;;;;;6246536;23;20012;-93
2022/04/29 13:08:03;;;;;;;4.57;2.60;;;15.50;96.70;;;;;;6246014;23;20442;-93
2022/04/29 13:10:29;;;;;;;2.50;1.80;;;15.60;96.70;;;;;;6219817;23;20000;-92
2022/04/29 13:12:57;;;;;;;3.08;2.00;;;15.50;96.70;;;;;;6194480;23;20004;-88
2022/04/29 13:15:23;;;;;;;2.88;1.90;;;15.50;96.90;;;;;;6218770;23;20011;-93
2022/04/29 13:17:50;;;;;;;2.25;2.03;;;15.50;96.80;;;;;;6245899;23;20005;-85
2022/04/29 13:20:16;;;;;;;2.63;2.20;;;15.50;96.80;;;;;;6218906;23;20008;-88
2022/04/29 13:22:42;;;;;;;3.25;1.90;;;15.50;97.10;;;;;;6218877;23;20000;-88
2022/04/29 13:25:08;;;;;;;3.00;2.05;;;15.40;96.90;;;;;;6219414;23;20075;-92
2022/04/29 13:27:35;;;;;;;2.65;2.00;;;15.40;97.00;;;;;;6218843;23;20397;-83